Time;durP1;ratioP1;P1;durP2;ratioP2;P2;SDS_P1;SDS_P2;PMS_P1;PMS_P2;Temp;Humidity;BMP_temperature;BMP_pressure;BME280_temperature;BME280_humidity;BME280_pressure;Samples;Min_cycle;Max_cycle;Signal;HPM_P1;HPM_P2
2023/01/16 00:00:07;;;;;;;10.70;3.10;;;1.40;99.90;;;0.18;100.00;96214.09;5070282;28;20469;-75
2023/01/16 00:02:33;;;;;;;7.07;2.55;;;1.50;99.90;;;0.25;100.00;96202.59;5069594;28;20402;-75
2023/01/16 00:05:00;;;;;;;5.90;2.58;;;1.60;99.90;;;0.32;100.00;96197.34;5070350;28;20408;-75
2023/01/16 00:07:26;;;;;;;9.32;2.50;;;1.70;99.90;;;0.34;100.00;96187.50;5070313;28;20806;-75
2023/01/16 00:09:52;;;;;;;9.67;2.70;;;1.70;99.90;;;0.34;100.00;96187.50;5070245;28;20480;-75
2023/01/16 00:12:18;;;;;;;10.50;2.83;;;1.70;99.90;;;0.36;100.00;96194.09;5070303;28;20418;-75
2023/01/16 00:14:44;;;;;;;10.35;2.80;;;1.70;99.90;;;0.42;100.00;96178.63;5070268;28;20829;-75
2023/01/16 00:17:10;;;;;;;9.68;2.83;;;1.70;99.90;;;0.47;100.00;96183.97;5070207;28;20407;-75
2023/01/16 00:19:35;;;;;;;6.85;2.80;;;1.80;99.90;;;0.53;100.00;96177.88;5070111;28;20455;-75
2023/01/16 00:22:03;;;;;;;8.77;2.70;;;1.80;99.90;;;0.59;100.00;96164.03;5070265;28;20407;-75
2023/01/16 00:24:29;;;;;;;10.50;2.67;;;1.90;99.90;;;0.60;100.00;96158.56;5070162;28;20402;-75
2023/01/16 00:26:54;;;;;;;8.93;2.90;;;1.90;99.90;;;0.67;100.00;96158.53;5069985;28;20403;-75
2023/01/16 00:29:21;;;;;;;8.82;2.90;;;2.00;99.90;;;0.65;100.00;96150.91;5070046;28;20403;-75
2023/01/16 00:31:47;;;;;;;9.95;2.75;;;2.00;99.90;;;0.61;100.00;96154.16;5070246;28;20802;-75
2023/01/16 00:34:12;;;;;;;7.22;2.25;;;2.00;99.90;;;0.56;100.00;96147.03;5070027;28;20431;-75
2023/01/16 00:36:39;;;;;;;12.75;3.00;;;1.90;99.90;;;0.53;100.00;96138.84;5069950;28;20399;-75
2023/01/16 00:39:06;;;;;;;4.63;2.45;;;1.90;99.90;;;0.53;100.00;96137.03;5069813;28;20400;-75
2023/01/16 00:41:33;;;;;;;10.10;2.70;;;1.80;99.90;;;0.53;100.00;96133.63;5069941;28;20388;-75
2023/01/16 00:43:58;;;;;;;10.25;2.88;;;1.90;99.90;;;0.53;100.00;96136.22;5069950;28;20435;-75
2023/01/16 00:46:25;;;;;;;6.05;2.50;;;1.90;99.90;;;0.62;100.00;96121.91;5070060;28;20872;-75
2023/01/16 00:48:50;;;;;;;7.57;2.72;;;1.90;99.90;;;0.59;100.00;96119.75;5069711;28;20399;-75
2023/01/16 00:51:16;;;;;;;10.10;2.35;;;1.90;99.90;;;0.57;100.00;96116.56;5069956;28;20742;-75
2023/01/16 00:53:42;;;;;;;11.10;2.75;;;1.90;99.90;;;0.56;100.00;96115.78;5069865;28;20491;-75
2023/01/16 00:56:09;;;;;;;6.40;2.20;;;1.90;99.90;;;0.56;100.00;96110.56;5069910;28;20427;-75
2023/01/16 00:58:36;;;;;;;10.60;2.50;;;1.90;99.90;;;0.57;100.00;96117.38;5069866;28;20410;-75
2023/01/16 01:01:01;;;;;;;9.30;2.53;;;1.90;99.90;;;0.58;100.00;96111.16;5069861;28;20908;-75
2023/01/16 01:03:28;;;;;;;9.37;2.43;;;1.90;99.90;;;0.54;100.00;96090.97;5069692;28;20556;-75
2023/01/16 01:05:54;;;;;;;8.80;2.60;;;1.90;99.90;;;0.51;100.00;96097.44;5069939;28;20970;-75
2023/01/16 01:08:20;;;;;;;12.98;2.80;;;1.80;99.90;;;0.51;100.00;96084.41;5069709;28;20491;-75
2023/01/16 01:10:46;;;;;;;7.00;2.30;;;1.80;99.90;;;0.45;100.00;96085.28;5069613;28;20540;-75
2023/01/16 01:13:13;;;;;;;8.65;2.38;;;1.80;99.90;;;0.41;100.00;96072.91;5069724;28;20492;-75
2023/01/16 01:15:39;;;;;;;6.38;2.22;;;1.70;99.90;;;0.34;100.00;96076.41;5073513;28;20873;-75
2023/01/16 01:18:06;;;;;;;9.10;2.37;;;1.70;99.90;;;0.31;100.00;96073.41;5073287;28;20399;-75
2023/01/16 01:20:32;;;;;;;10.90;2.63;;;1.60;99.90;;;0.28;100.00;96060.88;5073159;28;20455;-75
2023/01/16 01:22:57;;;;;;;8.93;2.50;;;1.60;99.90;;;0.34;100.00;96052.19;5073462;28;20399;-75
2023/01/16 01:25:24;;;;;;;9.95;2.67;;;1.70;99.90;;;0.31;100.00;96055.19;5073341;28;20487;-75
2023/01/16 01:27:50;;;;;;;6.55;2.47;;;1.60;99.90;;;0.30;100.00;96051.81;5073150;28;20764;-75
2023/01/16 01:30:19;;;;;;;11.88;2.45;;;1.70;99.90;;;0.27;100.00;96052.25;5073199;28;20396;-75
2023/01/16 01:32:44;;;;;;;7.13;2.78;;;1.60;99.90;;;0.21;100.00;96058.34;5073255;28;20404;-75
2023/01/16 01:35:10;;;;;;;7.63;2.33;;;1.60;99.90;;;0.19;100.00;96049.16;5073352;28;20433;-75
2023/01/16 01:37:36;;;;;;;7.97;2.72;;;1.60;99.90;;;0.16;100.00;96037.38;5073154;28;20529;-75
2023/01/16 01:40:04;;;;;;;6.93;2.40;;;1.50;99.90;;;0.19;100.00;96030.94;5072942;28;20407;-74
2023/01/16 01:42:45;;;;;;;8.25;2.70;;;1.50;99.90;;;0.19;100.00;96038.75;5072928;28;20398;-74
2023/01/16 01:45:19;;;;;;;11.60;2.97;;;1.50;99.90;;;0.22;100.00;96041.72;5073079;28;20395;-74
2023/01/16 01:47:54;;;;;;;7.53;2.73;;;1.60;99.90;;;0.18;100.00;96030.16;5073044;28;20459;-75
2023/01/16 01:50:30;;;;;;;11.68;2.80;;;1.50;99.90;;;0.16;100.00;96028.78;5072991;28;20404;-75
2023/01/16 01:52:59;;;;;;;7.68;2.70;;;1.50;99.90;;;0.13;100.00;96032.63;5072827;28;20407;-75
2023/01/16 01:55:25;;;;;;;10.75;2.67;;;1.50;99.90;;;0.08;100.00;96022.06;5072881;28;20499;-74
2023/01/16 01:57:57;;;;;;;8.63;2.60;;;1.40;99.90;;;0.06;100.00;96012.91;5072578;28;20418;-74
2023/01/16 02:00:26;;;;;;;9.70;2.80;;;1.40;99.90;;;0.08;100.00;96016.06;5072672;28;20841;-75
2023/01/16 02:02:59;;;;;;;8.05;2.35;;;1.40;99.90;;;0.00;100.00;95991.94;5072753;28;20396;-75
2023/01/16 02:05:32;;;;;;;11.77;2.90;;;1.40;99.90;;;-0.02;100.00;95988.78;5072713;28;20396;-74
2023/01/16 02:08:00;;;;;;;13.47;2.63;;;1.40;99.90;;;-0.06;100.00;95977.19;5072531;28;20877;-75
2023/01/16 02:10:33;;;;;;;8.02;2.53;;;1.30;99.90;;;-0.08;100.00;95976.66;5072501;28;20421;-75
2023/01/16 02:13:01;;;;;;;12.48;3.17;;;1.30;99.90;;;-0.06;100.00;95961.59;5072523;28;20438;-75
2023/01/16 02:15:29;;;;;;;9.05;2.50;;;1.30;99.90;;;-0.06;100.00;95951.19;5072482;28;20396;-75
2023/01/16 02:21:01;;;;;;;7.50;2.40;;;1.30;99.90;;;-0.12;100.00;95935.69;5072324;28;20537;-75
2023/01/16 02:24:02;;;;;;;8.15;2.38;;;1.20;99.90;;;-0.17;100.00;95930.34;5054283;28;20404;-75
2023/01/16 02:27:11;;;;;;;7.28;2.80;;;1.20;99.90;;;-0.21;100.00;95910.97;5068648;28;20419;-75
2023/01/16 02:30:20;;;;;;;7.50;2.38;;;1.20;99.90;;;-0.25;100.00;95899.44;5058795;28;20466;-75
2023/01/16 02:33:03;;;;;;;8.07;2.60;;;1.10;99.90;;;-0.26;100.00;95895.25;5072196;28;20436;-75
2023/01/16 02:35:51;;;;;;;7.40;2.50;;;1.10;99.90;;;-0.22;100.00;95889.38;5072051;28;20484;-75
2023/01/16 02:38:28;;;;;;;10.38;2.55;;;1.10;99.90;;;-0.25;100.00;95889.84;5071886;28;20400;-74
2023/01/16 02:41:07;;;;;;;6.55;2.63;;;1.10;99.90;;;-0.22;100.00;95884.19;5071727;28;20412;-74
2023/01/16 02:43:40;;;;;;;7.38;2.70;;;1.10;99.90;;;-0.20;100.00;95874.38;5071810;28;20769;-75
2023/01/16 02:46:14;;;;;;;8.75;2.75;;;1.10;99.90;;;-0.22;100.00;95865.97;5071945;28;20392;-74
2023/01/16 02:48:53;;;;;;;7.60;2.47;;;1.10;99.90;;;-0.22;100.00;95860.00;5071675;28;20403;-75
2023/01/16 02:51:32;;;;;;;10.20;2.80;;;1.10;99.90;;;-0.23;100.00;95851.41;5071787;28;20400;-74
2023/01/16 02:54:06;;;;;;;9.00;2.60;;;1.10;99.90;;;-0.28;100.00;95842.69;5071767;28;20403;-76
2023/01/16 02:56:41;;;;;;;8.98;2.72;;;1.10;99.90;;;-0.28;100.00;95827.06;5071786;28;20919;-76
2023/01/16 02:59:09;;;;;;;7.22;2.75;;;1.10;99.90;;;-0.25;100.00;95822.25;5071478;28;20395;-76
2023/01/16 03:01:38;;;;;;;10.85;3.20;;;1.10;99.90;;;-0.30;100.00;95826.53;5071790;28;20418;-76
2023/01/16 03:04:42;;;;;;;8.25;2.70;;;1.10;99.90;;;-0.38;100.00;95810.19;5071623;28;20407;-76
2023/01/16 03:07:24;;;;;;;5.50;2.30;;;1.00;99.90;;;-0.42;100.00;95801.28;5069570;28;20423;-76
2023/01/16 03:10:05;;;;;;;8.70;2.58;;;1.00;99.90;;;-0.40;100.00;95788.06;5071494;28;20470;-76
2023/01/16 03:12:42;;;;;;;7.13;2.58;;;1.00;99.90;;;-0.43;100.00;95783.28;5071445;28;20396;-76
2023/01/16 03:15:14;;;;;;;11.32;2.65;;;0.90;99.90;;;-0.39;100.00;95766.25;5071439;28;20407;-76
2023/01/16 03:17:58;;;;;;;10.95;2.90;;;1.00;99.90;;;-0.36;100.00;95762.41;5071293;28;20392;-76
2023/01/16 03:20:37;;;;;;;5.10;2.30;;;1.00;99.90;;;-0.38;100.00;95760.81;5053344;28;20915;-76
2023/01/16 03:23:14;;;;;;;8.65;2.58;;;1.00;99.90;;;-0.38;100.00;95746.25;5071394;28;20403;-76
2023/01/16 03:25:50;;;;;;;7.90;2.50;;;1.00;99.90;;;-0.45;100.00;95748.91;5071303;28;20395;-76
2023/01/16 03:28:25;;;;;;;3.53;2.28;;;0.90;99.90;;;-0.50;100.00;95748.81;5071040;28;20876;-75
2023/01/16 03:30:59;;;;;;;11.68;2.58;;;0.90;99.90;;;-0.52;100.00;95738.63;5070977;28;20392;-76
2023/01/16 03:33:42;;;;;;;7.90;2.60;;;0.90;99.90;;;-0.52;100.00;95735.22;5070980;28;20403;-76
2023/01/16 03:36:15;;;;;;;12.32;2.85;;;0.90;99.90;;;-0.56;100.00;95742.69;5071006;28;20465;-76
2023/01/16 03:38:46;;;;;;;5.82;2.55;;;0.80;99.90;;;-0.57;100.00;95729.91;5070881;28;20392;-76
2023/01/16 03:41:18;;;;;;;9.55;2.80;;;0.80;99.90;;;-0.63;100.00;95718.59;5052866;28;21108;-76
2023/01/16 03:43:49;;;;;;;10.27;2.80;;;0.80;99.90;;;-0.63;100.00;95710.81;5070842;28;20420;-76
2023/01/16 03:46:20;;;;;;;8.93;3.00;;;0.80;99.90;;;-0.68;100.00;95697.72;5070915;28;20392;-76
2023/01/16 03:48:52;;;;;;;6.20;2.67;;;0.70;99.90;;;-0.75;100.00;95688.41;5070699;28;20399;-76
2023/01/16 03:51:24;;;;;;;7.20;2.53;;;0.70;99.90;;;-0.78;100.00;95684.44;5070639;28;20423;-76
2023/01/16 03:54:01;;;;;;;11.30;2.97;;;0.60;99.90;;;-0.80;100.00;95682.06;5070619;28;20892;-76
2023/01/16 03:56:34;;;;;;;12.18;2.80;;;0.60;99.90;;;-0.79;100.00;95675.88;5070712;28;20832;-76
2023/01/16 03:59:01;;;;;;;11.33;2.90;;;0.60;99.90;;;-0.79;100.00;95672.47;5070394;28;20896;-76
2023/01/16 04:01:37;;;;;;;10.02;2.80;;;0.60;99.90;;;-0.84;100.00;95659.38;5070458;28;20419;-76
2023/01/16 04:04:08;;;;;;;7.33;2.63;;;0.60;99.90;;;-0.82;100.00;95650.31;5070619;28;20735;-76
2023/01/16 04:06:47;;;;;;;6.57;2.85;;;0.60;99.90;;;-0.84;100.00;95633.41;5070477;28;20884;-76
2023/01/16 04:09:21;;;;;;;7.75;2.60;;;0.60;99.90;;;-0.83;100.00;95632.38;5070311;28;20395;-76
2023/01/16 04:11:50;;;;;;;6.53;2.92;;;0.60;99.90;;;-0.84;100.00;95621.19;5070497;28;20391;-76
2023/01/16 04:14:18;;;;;;;9.70;2.90;;;0.60;99.90;;;-0.88;100.00;95617.44;5070470;28;20410;-76
2023/01/16 04:16:44;;;;;;;8.90;2.85;;;0.50;99.90;;;-0.89;100.00;95610.66;5052464;28;20818;-76
2023/01/16 04:19:13;;;;;;;5.93;2.60;;;0.50;99.90;;;-0.89;100.00;95608.06;5070150;28;20395;-76
2023/01/16 04:21:44;;;;;;;11.23;3.43;;;0.50;99.90;;;-0.98;100.00;95596.44;5052251;28;20827;-75
2023/01/16 04:24:10;;;;;;;5.45;2.70;;;0.50;99.90;;;-1.03;100.00;95591.09;5070321;28;20396;-76
2023/01/16 04:26:36;;;;;;;10.23;3.10;;;0.40;99.90;;;-1.02;100.00;95582.31;5070213;28;20410;-75
2023/01/16 04:29:02;;;;;;;7.13;2.58;;;0.40;99.90;;;-1.02;100.00;95578.91;5069920;28;20399;-75
2023/01/16 04:31:28;;;;;;;16.67;2.88;;;0.40;99.90;;;-1.05;100.00;95574.94;5070153;28;20426;-76
2023/01/16 04:33:54;;;;;;;9.43;2.67;;;0.40;99.90;;;-1.11;100.00;95562.06;5070178;28;20396;-75
2023/01/16 04:36:20;;;;;;;8.10;2.80;;;0.30;99.90;;;-1.15;100.00;95547.97;5070129;28;20757;-75
2023/01/16 04:38:48;;;;;;;8.23;2.70;;;0.30;99.90;;;-1.18;100.00;95547.38;5069889;28;20417;-76
2023/01/16 04:41:35;;;;;;;12.60;2.85;;;0.30;99.90;;;-1.17;100.00;95535.22;5070038;28;20407;-75
2023/01/16 04:44:00;;;;;;;9.85;3.35;;;0.20;99.90;;;-1.19;100.00;95519.84;5069882;28;20408;-75
2023/01/16 04:46:26;;;;;;;11.52;2.50;;;0.30;99.90;;;-1.18;100.00;95521.44;5070131;28;20414;-75
2023/01/16 04:48:52;;;;;;;11.27;3.10;;;0.20;99.90;;;-1.18;100.00;95505.06;5065314;28;20415;-75
2023/01/16 04:51:17;;;;;;;11.05;2.97;;;0.20;99.90;;;-1.22;100.00;95502.13;5073912;28;20764;-76
2023/01/16 04:53:43;;;;;;;8.52;3.10;;;0.20;99.90;;;-1.24;100.00;95488.59;5056110;28;20411;-76
2023/01/16 04:56:11;;;;;;;8.43;2.93;;;0.20;99.90;;;-1.28;100.00;95474.47;5073954;28;20396;-76
2023/01/16 04:58:36;;;;;;;8.75;2.67;;;0.20;99.90;;;-1.30;100.00;95465.34;5073745;28;20403;-76
2023/01/16 05:01:02;;;;;;;5.57;2.70;;;0.10;99.90;;;-1.32;100.00;95460.34;5073623;28;20472;-76
2023/01/16 05:03:28;;;;;;;4.20;2.78;;;0.10;99.90;;;-1.37;100.00;95456.88;5073685;28;20406;-76
2023/01/16 05:05:54;;;;;;;7.75;2.60;;;0.10;99.90;;;-1.38;100.00;95445.69;5066033;28;20405;-74
2023/01/16 05:08:25;;;;;;;5.60;2.70;;;0.10;99.90;;;-1.39;100.00;95438.91;5053712;28;20432;-75
2023/01/16 05:10:51;;;;;;;8.02;3.13;;;0.10;99.90;;;-1.36;100.00;95432.50;5053661;28;20905;-74
2023/01/16 05:13:18;;;;;;;5.78;2.90;;;0.10;99.90;;;-1.38;100.00;95424.13;5053649;28;20397;-75
2023/01/16 05:15:44;;;;;;;6.50;2.85;;;0.10;99.90;;;-1.39;100.00;95423.34;5053735;28;20405;-75
2023/01/16 05:18:13;;;;;;;9.57;2.83;;;0.00;99.90;;;-1.40;100.00;95411.38;5053223;28;20401;-75
2023/01/16 05:20:39;;;;;;;11.52;2.92;;;0.10;99.90;;;-1.41;100.00;95407.19;5051836;28;20782;-75
2023/01/16 05:23:05;;;;;;;8.32;2.80;;;0.10;99.90;;;-1.40;100.00;95401.00;5068868;28;20428;-74
2023/01/16 05:25:32;;;;;;;5.93;2.70;;;0.10;99.90;;;-1.39;100.00;95391.41;5071218;28;20413;-75
2023/01/16 05:27:58;;;;;;;8.75;3.03;;;0.10;99.90;;;-1.39;100.00;95384.44;5082881;28;20402;-74
2023/01/16 05:30:25;;;;;;;8.10;2.80;;;0.00;99.90;;;-1.43;100.00;95383.31;5093288;28;20397;-75
2023/01/16 05:32:51;;;;;;;16.60;3.30;;;0.00;99.90;;;-1.36;100.00;95381.38;5093365;28;20401;-74
2023/01/16 05:35:17;;;;;;;11.32;3.03;;;0.00;99.90;;;-1.41;100.00;95372.69;5093391;28;20744;-74
2023/01/16 05:37:43;;;;;;;11.05;3.03;;;0.00;99.90;;;-1.34;100.00;95361.16;5080325;28;20464;-74
2023/01/16 05:40:10;;;;;;;7.53;2.90;;;0.10;99.90;;;-1.27;100.00;95343.69;5084121;28;20428;-74
2023/01/16 05:42:36;;;;;;;11.17;3.37;;;0.10;99.90;;;-1.20;100.00;95340.97;5084817;28;20398;-74
2023/01/16 05:45:03;;;;;;;8.55;2.80;;;0.20;99.90;;;-1.19;100.00;95338.16;5092019;28;20509;-74
2023/01/16 05:47:30;;;;;;;8.65;2.80;;;0.20;99.90;;;-1.18;100.00;95331.94;5092888;28;20424;-75
2023/01/16 05:49:58;;;;;;;11.02;3.45;;;0.20;99.90;;;-1.11;100.00;95323.22;5102061;22;20442;-72
2023/01/16 05:52:24;;;;;;;8.40;2.70;;;0.30;99.90;;;-1.04;100.00;95305.72;5072769;28;20431;-73
2023/01/16 05:54:51;;;;;;;7.43;2.92;;;0.40;99.90;;;-0.95;100.00;95291.38;5072789;28;20400;-72
2023/01/16 05:57:17;;;;;;;8.87;2.70;;;0.40;99.90;;;-0.95;100.00;95292.16;5072387;28;20446;-72
2023/01/16 05:59:45;;;;;;;9.23;2.70;;;0.50;99.90;;;-0.92;100.00;95280.53;5071922;28;20484;-71
2023/01/16 06:02:11;;;;;;;5.85;2.70;;;0.50;99.90;;;-0.90;100.00;95276.66;5053813;28;20828;-71
2023/01/16 06:04:38;;;;;;;11.20;3.00;;;0.50;99.90;;;-0.90;100.00;95270.69;5072390;28;20482;-71
2023/01/16 06:07:04;;;;;;;8.23;2.53;;;0.50;99.90;;;-0.86;100.00;95271.81;5070829;28;20494;-71
2023/01/16 06:09:30;;;;;;;10.35;3.10;;;0.50;99.90;;;-0.74;100.00;95263.97;5069327;28;20499;-73
2023/01/16 06:11:56;;;;;;;7.83;2.80;;;0.70;99.90;;;-0.66;100.00;95255.81;5066965;28;20901;-73
2023/01/16 06:14:22;;;;;;;10.55;2.60;;;0.70;99.90;;;-0.58;100.00;95247.63;5064670;28;20482;-73
2023/01/16 06:16:48;;;;;;;7.88;2.70;;;0.80;99.90;;;-0.51;100.00;95236.09;5072289;28;20411;-73
2023/01/16 06:19:13;;;;;;;5.10;2.60;;;0.80;99.90;;;-0.43;100.00;95235.69;5072200;28;20459;-73
2023/01/16 06:21:41;;;;;;;14.80;2.80;;;0.90;99.90;;;-0.30;100.00;95215.66;5072068;28;20414;-74
2023/01/16 06:24:07;;;;;;;7.07;2.50;;;1.00;99.90;;;-0.32;100.00;95210.66;5054253;28;20414;-73
2023/01/16 06:26:33;;;;;;;8.40;3.03;;;1.00;99.90;;;-0.33;100.00;95203.09;5072221;28;20900;-72
2023/01/16 06:28:59;;;;;;;9.15;2.50;;;1.00;99.90;;;-0.38;100.00;95196.78;5072026;28;20400;-72
2023/01/16 06:31:25;;;;;;;6.65;3.17;;;1.00;99.90;;;-0.36;100.00;95200.97;5071981;28;20530;-72
2023/01/16 06:33:51;;;;;;;8.07;2.88;;;1.00;99.90;;;-0.37;100.00;95194.97;5071974;28;20451;-72
2023/01/16 06:36:17;;;;;;;11.53;2.80;;;1.00;99.90;;;-0.36;100.00;95193.16;5072160;28;20791;-72
2023/01/16 06:38:44;;;;;;;6.65;3.03;;;1.00;99.90;;;-0.30;100.00;95179.25;5071779;28;20408;-72
2023/01/16 06:41:10;;;;;;;12.70;3.15;;;1.00;99.90;;;-0.26;100.00;95170.72;5071745;28;20485;-72
2023/01/16 06:43:36;;;;;;;6.28;2.90;;;1.10;99.90;;;-0.24;100.00;95165.31;5071858;28;20407;-72
2023/01/16 06:46:03;;;;;;;7.32;3.10;;;1.10;99.90;;;-0.20;100.00;95156.78;5071729;28;20435;-72
2023/01/16 06:48:29;;;;;;;7.53;3.33;;;1.10;99.90;;;-0.20;100.00;95154.19;5053584;28;20960;-72
2023/01/16 06:50:55;;;;;;;8.10;3.10;;;1.10;99.90;;;-0.15;100.00;95156.84;5071510;28;20490;-72
2023/01/16 06:53:20;;;;;;;7.93;2.88;;;1.20;99.90;;;-0.18;100.00;95154.75;5071541;28;20494;-72
2023/01/16 06:55:48;;;;;;;5.93;2.90;;;1.10;99.90;;;-0.10;100.00;95143.16;5071598;28;20403;-72
2023/01/16 06:58:13;;;;;;;9.20;3.20;;;1.20;99.90;;;-0.11;100.00;95142.34;5071534;28;20904;-72
2023/01/16 07:00:39;;;;;;;6.22;3.13;;;1.20;99.90;;;-0.04;100.00;95131.78;5071240;28;20455;-71
2023/01/16 07:03:05;;;;;;;8.30;2.95;;;1.30;99.90;;;-0.09;100.00;95127.31;5071368;28;20400;-71
2023/01/16 07:05:31;;;;;;;5.43;2.92;;;1.30;99.90;;;0.00;100.00;95130.28;5071434;28;20910;-72
2023/01/16 07:07:58;;;;;;;7.40;3.15;;;1.30;99.90;;;-0.02;100.00;95114.94;5071326;28;20404;-72
2023/01/16 07:10:24;;;;;;;7.38;3.63;;;1.30;99.90;;;-0.03;100.00;95113.34;5071197;28;20510;-72
2023/01/16 07:12:52;;;;;;;8.23;4.03;;;1.30;99.90;;;-0.03;100.00;95107.34;5070970;28;20943;-72
2023/01/16 07:23:41;;;;;;;5.65;3.50;;;1.20;99.90;;;-0.11;100.00;95092.97;5071119;28;20402;-72
2023/01/16 07:26:10;;;;;;;8.67;3.80;;;1.20;99.90;;;-0.03;100.00;95089.16;5071099;28;20878;-72
2023/01/16 07:28:39;;;;;;;10.68;4.05;;;1.30;99.90;;;0.00;100.00;95073.09;5070887;28;20435;-72
2023/01/16 07:31:06;;;;;;;10.30;3.88;;;1.30;99.90;;;-0.01;100.00;95084.50;5070779;28;20395;-72
2023/01/16 07:33:33;;;;;;;6.72;3.45;;;1.30;99.90;;;0.10;100.00;95072.41;5070794;28;20400;-72
2023/01/16 07:35:59;;;;;;;9.52;4.07;;;1.40;99.90;;;0.13;100.00;95072.72;5070988;28;20407;-73
2023/01/16 07:38:25;;;;;;;7.53;4.28;;;1.40;99.90;;;0.13;100.00;95070.13;5070670;28;20399;-71
2023/01/16 07:40:50;;;;;;;8.05;4.18;;;1.40;99.90;;;0.22;100.00;95063.47;5070536;28;20484;-72
2023/01/16 07:43:16;;;;;;;12.52;5.05;;;1.50;99.90;;;0.16;100.00;95061.03;5070699;28;20457;-72
2023/01/16 07:45:45;;;;;;;10.30;4.60;;;1.50;99.90;;;0.14;100.00;95058.69;5070607;28;20455;-72
2023/01/16 07:48:11;;;;;;;10.23;4.40;;;1.40;99.90;;;0.26;100.00;95054.13;5070555;28;20399;-72
2023/01/16 07:50:37;;;;;;;8.77;3.92;;;1.60;99.90;;;0.31;100.00;95033.38;5070095;28;20403;-74
2023/01/16 07:53:03;;;;;;;12.65;4.40;;;1.50;99.90;;;0.27;100.00;95028.91;5068404;28;20435;-72
2023/01/16 07:55:28;;;;;;;7.07;3.50;;;1.60;99.90;;;0.26;100.00;95024.72;5069778;28;20901;-72
2023/01/16 07:57:54;;;;;;;7.37;3.57;;;1.60;99.90;;;0.27;100.00;95026.31;5069688;28;20400;-72
2023/01/16 08:00:21;;;;;;;8.32;4.00;;;1.50;99.90;;;0.29;100.00;95019.03;5069382;28;20416;-72
2023/01/16 08:02:49;;;;;;;6.38;3.85;;;1.60;99.90;;;0.31;100.00;95009.16;5069695;28;20388;-72
2023/01/16 08:05:15;;;;;;;11.50;4.10;;;1.60;99.90;;;0.30;100.00;94990.16;5069714;28;20752;-72
2023/01/16 08:07:41;;;;;;;8.65;3.67;;;1.60;99.90;;;0.33;100.00;94984.47;5069326;28;21005;-72
2023/01/16 08:10:09;;;;;;;10.43;4.67;;;1.60;99.90;;;0.35;100.00;94985.03;5069741;28;20477;-77
2023/01/16 08:12:37;;;;;;;7.28;4.03;;;1.60;99.90;;;0.39;100.00;94983.50;5069521;28;20404;-78
2023/01/16 08:15:04;;;;;;;8.73;4.15;;;1.70;99.90;;;0.36;100.00;94976.19;5069532;28;20396;-78
2023/01/16 08:17:30;;;;;;;7.57;3.87;;;1.60;99.90;;;0.47;100.00;94973.66;5069408;28;20543;-77
2023/01/16 08:19:58;;;;;;;8.32;3.70;;;1.70;99.90;;;0.57;100.00;94974.56;5069389;28;20403;-73
2023/01/16 08:22:23;;;;;;;8.20;3.53;;;1.80;99.90;;;0.59;100.00;94962.09;5068186;28;20442;-73
2023/01/16 08:24:49;;;;;;;9.63;4.10;;;1.90;99.90;;;0.64;100.00;94963.94;5068477;28;20881;-72
2023/01/16 08:27:15;;;;;;;10.93;3.50;;;1.90;99.90;;;0.67;100.00;94961.63;5069458;28;20395;-72
2023/01/16 08:29:41;;;;;;;11.63;3.33;;;1.90;99.90;;;0.66;100.00;94954.06;5069111;28;20412;-72
2023/01/16 08:32:09;;;;;;;6.97;3.35;;;1.90;99.90;;;0.62;100.00;94955.56;5069369;28;20427;-73
2023/01/16 08:34:35;;;;;;;7.18;3.10;;;1.90;99.90;;;0.70;100.00;94952.53;5069262;28;20847;-72
2023/01/16 08:37:04;;;;;;;6.47;3.30;;;1.90;99.90;;;0.73;100.00;94947.63;5069384;28;20737;-72
2023/01/16 08:39:30;;;;;;;5.97;3.33;;;2.00;99.90;;;0.83;100.00;94949.50;5061673;28;20411;-72
2023/01/16 08:53:00;;;;;;;4.95;2.95;;;2.20;99.90;;;0.99;100.00;94938.16;5069788;28;20543;-72
2023/01/16 08:55:26;;;;;;;5.75;3.03;;;2.20;99.90;;;0.93;100.00;94928.75;5050934;28;20450;-72
2023/01/16 08:57:52;;;;;;;5.40;3.20;;;2.20;99.90;;;1.02;100.00;94929.06;5069516;28;20391;-72
2023/01/16 09:00:19;;;;;;;7.32;3.00;;;2.30;99.90;;;1.08;100.00;94938.47;5069488;28;20767;-72
2023/01/16 09:02:45;;;;;;;4.85;2.70;;;2.30;99.90;;;1.12;100.00;94936.94;5069378;28;20403;-73
2023/01/16 09:05:13;;;;;;;5.53;2.65;;;2.30;99.90;;;1.12;100.00;94919.50;5069474;28;20395;-74
2023/01/16 09:07:39;;;;;;;5.30;2.70;;;2.40;99.90;;;1.16;100.00;94936.19;5069732;28;20741;-74
2023/01/16 09:10:08;;;;;;;6.85;2.70;;;2.40;99.90;;;1.15;100.00;94939.81;5069451;28;20796;-74
2023/01/16 09:15:19;;;;;;;4.53;3.03;;;2.40;99.90;;;1.22;100.00;94947.41;5069547;28;20445;-74
2023/01/16 09:17:45;;;;;;;3.28;2.58;;;2.50;99.90;;;1.34;100.00;94968.06;5069406;28;20392;-74
2023/01/16 09:20:11;;;;;;;6.22;2.65;;;2.50;99.90;;;1.33;100.00;94969.13;5069256;28;20484;-74
2023/01/16 09:22:37;;;;;;;3.33;2.35;;;2.50;99.90;;;1.43;100.00;94972.53;5068222;28;20439;-74
2023/01/16 09:25:05;;;;;;;5.17;2.40;;;2.60;99.90;;;1.41;100.00;94956.41;5062323;28;21143;-73
2023/01/16 09:27:31;;;;;;;4.65;2.17;;;2.60;99.90;;;1.44;100.00;94961.09;5062806;28;20411;-73
2023/01/16 09:29:58;;;;;;;6.50;2.30;;;2.70;99.90;;;1.51;100.00;94947.81;5065509;28;20413;-74
2023/01/16 09:32:25;;;;;;;3.05;2.30;;;2.70;99.90;;;1.62;100.00;94935.63;5069463;28;20434;-74
2023/01/16 09:34:51;;;;;;;4.82;2.33;;;2.80;99.90;;;1.52;100.00;94929.31;5070147;28;20415;-73
2023/01/16 09:37:17;;;;;;;4.70;2.17;;;2.80;99.90;;;1.74;100.00;94926.53;5072851;28;20490;-73
2023/01/16 09:39:43;;;;;;;4.78;2.30;;;2.90;99.90;;;1.77;100.00;94915.59;5072606;28;20399;-73
2023/01/16 09:45:33;;;;;;;3.00;2.00;;;3.00;99.90;;;1.92;100.00;94902.59;5072895;28;20418;-73
2023/01/16 09:48:04;;;;;;;3.63;2.37;;;3.10;99.90;;;2.01;100.00;94897.69;5072521;28;20399;-74
2023/01/16 09:50:36;;;;;;;3.38;2.17;;;3.20;99.90;;;2.07;100.00;94901.06;5072424;28;20431;-73
2023/01/16 09:58:48;;;;;;;2.63;2.00;;;3.30;99.90;;;2.14;100.00;94893.78;5057953;28;20454;-73
2023/01/16 10:01:20;;;;;;;4.13;2.20;;;3.30;99.90;;;2.28;100.00;94895.63;5070592;28;20595;-73
2023/01/16 10:03:46;;;;;;;5.68;2.13;;;3.40;99.90;;;2.11;100.00;94891.66;5063763;28;20410;-73
2023/01/16 10:06:22;;;;;;;2.93;2.10;;;3.30;99.90;;;2.16;100.00;94883.88;5054105;28;20414;-73
2023/01/16 10:09:04;;;;;;;4.10;2.03;;;3.40;99.90;;;2.14;100.00;94872.91;5059298;28;20459;-73
2023/01/16 10:11:40;;;;;;;3.03;1.83;;;3.40;99.90;;;2.23;100.00;94855.69;5072234;28;20520;-73
2023/01/16 10:14:53;;;;;;;4.13;2.17;;;3.40;99.90;;;2.23;100.00;94842.66;5072137;28;20947;-73
2023/01/16 10:17:32;;;;;;;3.70;1.70;;;3.40;99.90;;;2.09;100.00;94837.16;5059230;28;20407;-73
2023/01/16 10:20:42;;;;;;;2.75;2.00;;;3.30;99.90;;;2.16;100.00;94832.47;5072014;28;20415;-75
2023/01/16 10:23:27;;;;;;;3.70;1.90;;;3.30;99.90;;;2.17;100.00;94828.81;5072103;28;20476;-73
2023/01/16 10:26:03;;;;;;;5.20;2.00;;;3.40;99.90;;;2.25;100.00;94832.75;5072298;28;20411;-73
2023/01/16 10:28:47;;;;;;;3.30;2.33;;;3.40;99.90;;;2.31;100.00;94829.88;5056435;28;20476;-74
2023/01/16 10:31:20;;;;;;;2.38;2.00;;;3.50;99.90;;;2.41;100.00;94815.22;5071812;28;20531;-74
2023/01/16 10:33:53;;;;;;;5.93;2.20;;;3.50;99.90;;;2.45;100.00;94811.84;5071827;28;20491;-74
2023/01/16 10:36:21;;;;;;;6.90;2.73;;;3.60;99.90;;;2.39;100.00;94812.91;5071920;28;20410;-74
2023/01/16 10:38:54;;;;;;;4.68;2.30;;;3.60;99.90;;;2.53;100.00;94803.47;5071596;28;20403;-73
2023/01/16 10:50:00;;;;;;;4.82;1.60;;;3.70;99.90;;;2.50;100.00;94780.50;5071277;28;20461;-74
2023/01/16 10:52:26;;;;;;;1.83;1.60;;;3.70;99.90;;;2.52;100.00;94769.78;5070210;28;20400;-74
2023/01/16 10:54:53;;;;;;;1.67;1.58;;;3.70;99.90;;;2.54;100.00;94760.66;5071583;28;20407;-74
2023/01/16 10:57:20;;;;;;;1.77;1.67;;;3.70;99.90;;;2.60;100.00;94761.41;5071302;28;20435;-73
2023/01/16 10:59:50;;;;;;;2.37;1.50;;;3.80;99.90;;;2.77;100.00;94764.50;5071237;28;20474;-73
2023/01/16 11:02:23;;;;;;;4.65;1.60;;;3.90;99.90;;;2.93;100.00;94752.19;5071231;28;20469;-73
2023/01/16 11:04:49;;;;;;;2.08;1.52;;;4.00;99.90;;;3.03;100.00;94752.91;5071216;28;20845;-72
2023/01/16 11:07:19;;;;;;;2.00;1.80;;;4.10;99.90;;;3.00;100.00;94744.84;5071331;28;20503;-74
2023/01/16 11:09:46;;;;;;;1.48;1.33;;;4.10;99.90;;;2.92;100.00;94737.56;5070997;28;20948;-72
2023/01/16 11:18:50;;;;;;;1.70;1.50;;;4.30;99.90;;;3.12;100.00;94721.78;5055467;28;20479;-72